« Back
NWS Peachtree City, Ga » Text Product » AHN Terminal Aerodrome Forecast


Printer-friendly Version
Current Version              Previous Versions:   1  2  3  4  5  6  7  8  9  

Terminal Aerodrome Forecast

356
FTUS42 KFFC 210500
TAFAHN
TAF
KAHN 210520Z 2106/2206 VRB03KT P6SM SKC
     FM211400 27006KT P6SM SKC
     FM211900 27010KT P6SM SCT050
     FM220000 25003KT P6SM BKN080=

USA.gov is the U.S. government's official web portal to all federal, state and local government web resources and services.